sensor_id;sensor_type;location;lat;lon;timestamp;temperature;humidity
25440;DHT22;13365;52.208;5.488;2022-12-07T00:00:41;9.10;98.60
25440;DHT22;13365;52.208;5.488;2022-12-07T00:03:07;9.10;98.20
25440;DHT22;13365;52.208;5.488;2022-12-07T00:05:32;9.20;98.10
25440;DHT22;13365;52.208;5.488;2022-12-07T00:07:58;9.10;97.80
25440;DHT22;13365;52.208;5.488;2022-12-07T00:10:23;8.80;97.80
25440;DHT22;13365;52.208;5.488;2022-12-07T00:12:49;8.80;98.60
25440;DHT22;13365;52.208;5.488;2022-12-07T00:15:15;8.80;98.40
25440;DHT22;13365;52.208;5.488;2022-12-07T00:17:41;8.80;98.60
25440;DHT22;13365;52.208;5.488;2022-12-07T00:20:07;9.00;98.30
25440;DHT22;13365;52.208;5.488;2022-12-07T00:22:32;8.80;97.70
25440;DHT22;13365;52.208;5.488;2022-12-07T00:24:58;8.80;97.70
25440;DHT22;13365;52.208;5.488;2022-12-07T00:27:23;8.80;97.80
25440;DHT22;13365;52.208;5.488;2022-12-07T00:29:49;8.90;97.20
25440;DHT22;13365;52.208;5.488;2022-12-07T00:32:14;8.70;97.20
25440;DHT22;13365;52.208;5.488;2022-12-07T00:34:40;8.80;97.80
25440;DHT22;13365;52.208;5.488;2022-12-07T00:37:05;8.80;97.30
25440;DHT22;13365;52.208;5.488;2022-12-07T00:39:31;8.70;97.40
25440;DHT22;13365;52.208;5.488;2022-12-07T00:41:56;8.60;97.70
25440;DHT22;13365;52.208;5.488;2022-12-07T00:44:22;8.50;97.50
25440;DHT22;13365;52.208;5.488;2022-12-07T00:46:47;8.30;98.20
25440;DHT22;13365;52.208;5.488;2022-12-07T00:49:13;8.30;98.00
25440;DHT22;13365;52.208;5.488;2022-12-07T00:51:39;8.50;98.20
25440;DHT22;13365;52.208;5.488;2022-12-07T00:54:04;8.30;97.50
25440;DHT22;13365;52.208;5.488;2022-12-07T00:56:30;8.10;98.00
25440;DHT22;13365;52.208;5.488;2022-12-07T00:58:57;8.10;98.30
25440;DHT22;13365;52.208;5.488;2022-12-07T01:01:25;8.00;98.20
25440;DHT22;13365;52.208;5.488;2022-12-07T01:03:51;8.20;98.50
25440;DHT22;13365;52.208;5.488;2022-12-07T01:06:19;8.20;98.10
25440;DHT22;13365;52.208;5.488;2022-12-07T01:08:45;8.00;98.40
25440;DHT22;13365;52.208;5.488;2022-12-07T01:11:16;7.80;99.00
25440;DHT22;13365;52.208;5.488;2022-12-07T01:13:43;7.90;99.00
25440;DHT22;13365;52.208;5.488;2022-12-07T01:16:11;7.90;99.30
25440;DHT22;13365;52.208;5.488;2022-12-07T01:18:38;8.10;99.10
25440;DHT22;13365;52.208;5.488;2022-12-07T01:21:13;8.20;98.20
25440;DHT22;13365;52.208;5.488;2022-12-07T01:23:40;8.20;98.00
25440;DHT22;13365;52.208;5.488;2022-12-07T01:26:08;8.00;97.70
25440;DHT22;13365;52.208;5.488;2022-12-07T01:28:34;8.20;97.70
25440;DHT22;13365;52.208;5.488;2022-12-07T01:31:01;8.00;97.40
25440;DHT22;13365;52.208;5.488;2022-12-07T01:33:29;7.80;97.80
25440;DHT22;13365;52.208;5.488;2022-12-07T01:36:01;7.90;98.10
25440;DHT22;13365;52.208;5.488;2022-12-07T01:38:27;7.80;97.70
25440;DHT22;13365;52.208;5.488;2022-12-07T01:40:56;7.60;97.90
25440;DHT22;13365;52.208;5.488;2022-12-07T01:43:24;7.70;98.20
25440;DHT22;13365;52.208;5.488;2022-12-07T01:45:50;7.70;97.80
25440;DHT22;13365;52.208;5.488;2022-12-07T01:48:18;7.50;98.10
25440;DHT22;13365;52.208;5.488;2022-12-07T01:50:48;7.40;98.40
25440;DHT22;13365;52.208;5.488;2022-12-07T01:53:14;7.70;98.50
25440;DHT22;13365;52.208;5.488;2022-12-07T01:55:42;7.70;97.70
25440;DHT22;13365;52.208;5.488;2022-12-07T01:58:09;7.80;97.90
25440;DHT22;13365;52.208;5.488;2022-12-07T02:00:36;7.70;97.50
25440;DHT22;13365;52.208;5.488;2022-12-07T02:03:25;7.60;97.80
25440;DHT22;13365;52.208;5.488;2022-12-07T02:05:53;7.40;98.00
25440;DHT22;13365;52.208;5.488;2022-12-07T02:08:18;7.50;98.20
25440;DHT22;13365;52.208;5.488;2022-12-07T02:10:45;7.50;98.00
25440;DHT22;13365;52.208;5.488;2022-12-07T02:13:19;7.60;98.10
25440;DHT22;13365;52.208;5.488;2022-12-07T02:22:17;7.80;97.70
25440;DHT22;13365;52.208;5.488;2022-12-07T02:28:29;8.00;97.50
25440;DHT22;13365;52.208;5.488;2022-12-07T02:31:02;7.90;97.60
25440;DHT22;13365;52.208;5.488;2022-12-07T02:33:41;7.80;97.50
25440;DHT22;13365;52.208;5.488;2022-12-07T02:36:16;7.80;97.80
25440;DHT22;13365;52.208;5.488;2022-12-07T02:38:49;7.80;98.00
25440;DHT22;13365;52.208;5.488;2022-12-07T02:41:32;7.80;97.90
25440;DHT22;13365;52.208;5.488;2022-12-07T02:44:01;7.70;98.40
25440;DHT22;13365;52.208;5.488;2022-12-07T02:46:32;7.70;98.60
25440;DHT22;13365;52.208;5.488;2022-12-07T02:48:58;7.90;98.70
25440;DHT22;13365;52.208;5.488;2022-12-07T02:51:25;8.00;98.30
25440;DHT22;13365;52.208;5.488;2022-12-07T02:53:51;8.30;98.30
25440;DHT22;13365;52.208;5.488;2022-12-07T02:56:38;8.40;97.70
25440;DHT22;13365;52.208;5.488;2022-12-07T03:07:36;8.50;96.50
25440;DHT22;13365;52.208;5.488;2022-12-07T03:15:25;8.40;97.50
25440;DHT22;13365;52.208;5.488;2022-12-07T03:17:53;8.20;97.60
25440;DHT22;13365;52.208;5.488;2022-12-07T03:20:22;8.10;98.30
25440;DHT22;13365;52.208;5.488;2022-12-07T03:22:49;8.30;98.10
25440;DHT22;13365;52.208;5.488;2022-12-07T03:25:16;8.20;98.30
25440;DHT22;13365;52.208;5.488;2022-12-07T03:28:00;8.30;98.40
25440;DHT22;13365;52.208;5.488;2022-12-07T03:30:39;8.50;98.50
25440;DHT22;13365;52.208;5.488;2022-12-07T03:35:56;8.80;97.50
25440;DHT22;13365;52.208;5.488;2022-12-07T03:38:38;8.50;97.90
25440;DHT22;13365;52.208;5.488;2022-12-07T03:41:28;8.40;98.30
25440;DHT22;13365;52.208;5.488;2022-12-07T03:43:55;8.30;98.40
25440;DHT22;13365;52.208;5.488;2022-12-07T03:49:26;8.50;97.90
25440;DHT22;13365;52.208;5.488;2022-12-07T03:54:36;8.30;98.00
25440;DHT22;13365;52.208;5.488;2022-12-07T03:57:04;8.30;98.70
25440;DHT22;13365;52.208;5.488;2022-12-07T03:59:31;8.50;98.20
25440;DHT22;13365;52.208;5.488;2022-12-07T04:02:01;8.40;97.40
25440;DHT22;13365;52.208;5.488;2022-12-07T04:04:28;8.80;97.30
25440;DHT22;13365;52.208;5.488;2022-12-07T04:06:53;8.90;96.90
25440;DHT22;13365;52.208;5.488;2022-12-07T04:09:19;8.60;96.60
25440;DHT22;13365;52.208;5.488;2022-12-07T04:11:44;8.60;97.00
25440;DHT22;13365;52.208;5.488;2022-12-07T04:14:10;8.60;97.30
25440;DHT22;13365;52.208;5.488;2022-12-07T04:16:46;8.60;97.20
25440;DHT22;13365;52.208;5.488;2022-12-07T04:19:13;8.40;97.20
25440;DHT22;13365;52.208;5.488;2022-12-07T04:21:38;8.50;97.80
25440;DHT22;13365;52.208;5.488;2022-12-07T04:24:04;8.60;97.60
25440;DHT22;13365;52.208;5.488;2022-12-07T04:26:30;8.80;97.60
25440;DHT22;13365;52.208;5.488;2022-12-07T04:28:56;8.80;96.60
25440;DHT22;13365;52.208;5.488;2022-12-07T04:31:21;8.90;96.40
25440;DHT22;13365;52.208;5.488;2022-12-07T04:33:47;8.70;95.80
25440;DHT22;13365;52.208;5.488;2022-12-07T04:36:12;8.60;96.10
25440;DHT22;13365;52.208;5.488;2022-12-07T04:38:38;8.70;96.10
25440;DHT22;13365;52.208;5.488;2022-12-07T04:41:05;8.60;96.30
25440;DHT22;13365;52.208;5.488;2022-12-07T04:43:31;8.50;96.30
25440;DHT22;13365;52.208;5.488;2022-12-07T04:45:56;8.70;96.30
25440;DHT22;13365;52.208;5.488;2022-12-07T04:48:22;8.90;96.00
25440;DHT22;13365;52.208;5.488;2022-12-07T04:50:48;8.70;95.80
25440;DHT22;13365;52.208;5.488;2022-12-07T04:53:16;8.50;96.20
25440;DHT22;13365;52.208;5.488;2022-12-07T04:55:43;8.20;97.00
25440;DHT22;13365;52.208;5.488;2022-12-07T04:58:08;8.00;97.60
25440;DHT22;13365;52.208;5.488;2022-12-07T05:00:34;7.90;98.20
25440;DHT22;13365;52.208;5.488;2022-12-07T05:02:59;7.80;98.30
25440;DHT22;13365;52.208;5.488;2022-12-07T05:05:25;7.80;98.40
25440;DHT22;13365;52.208;5.488;2022-12-07T05:07:51;7.50;98.70
25440;DHT22;13365;52.208;5.488;2022-12-07T05:10:16;7.60;99.10
25440;DHT22;13365;52.208;5.488;2022-12-07T05:12:42;7.60;98.80
25440;DHT22;13365;52.208;5.488;2022-12-07T05:15:08;7.90;98.60
25440;DHT22;13365;52.208;5.488;2022-12-07T05:17:33;8.10;98.20
25440;DHT22;13365;52.208;5.488;2022-12-07T05:19:59;8.00;97.10
25440;DHT22;13365;52.208;5.488;2022-12-07T05:22:25;8.20;97.20
25440;DHT22;13365;52.208;5.488;2022-12-07T05:24:54;7.90;96.90
25440;DHT22;13365;52.208;5.488;2022-12-07T05:27:19;8.00;97.00
25440;DHT22;13365;52.208;5.488;2022-12-07T05:29:45;8.10;97.00
25440;DHT22;13365;52.208;5.488;2022-12-07T05:32:11;7.90;96.80
25440;DHT22;13365;52.208;5.488;2022-12-07T05:34:36;7.90;97.10
25440;DHT22;13365;52.208;5.488;2022-12-07T05:37:02;8.00;97.30
25440;DHT22;13365;52.208;5.488;2022-12-07T05:39:27;8.30;96.60
25440;DHT22;13365;52.208;5.488;2022-12-07T05:41:53;7.90;96.30
25440;DHT22;13365;52.208;5.488;2022-12-07T05:44:37;8.10;96.70
25440;DHT22;13365;52.208;5.488;2022-12-07T05:47:03;8.20;96.50
25440;DHT22;13365;52.208;5.488;2022-12-07T05:49:29;7.90;96.40
25440;DHT22;13365;52.208;5.488;2022-12-07T05:51:54;7.70;97.10
25440;DHT22;13365;52.208;5.488;2022-12-07T05:54:20;7.50;97.60
25440;DHT22;13365;52.208;5.488;2022-12-07T05:56:45;7.80;97.60
25440;DHT22;13365;52.208;5.488;2022-12-07T05:59:12;7.90;97.20
25440;DHT22;13365;52.208;5.488;2022-12-07T06:04:19;7.90;97.40
25440;DHT22;13365;52.208;5.488;2022-12-07T06:06:45;8.10;97.00
25440;DHT22;13365;52.208;5.488;2022-12-07T06:09:10;8.00;96.70
25440;DHT22;13365;52.208;5.488;2022-12-07T06:11:38;8.00;97.00
25440;DHT22;13365;52.208;5.488;2022-12-07T06:14:22;8.00;97.20
25440;DHT22;13365;52.208;5.488;2022-12-07T06:16:47;8.20;96.70
25440;DHT22;13365;52.208;5.488;2022-12-07T06:19:13;7.90;96.40
25440;DHT22;13365;52.208;5.488;2022-12-07T06:21:39;8.00;97.20
25440;DHT22;13365;52.208;5.488;2022-12-07T06:24:05;7.80;97.20
25440;DHT22;13365;52.208;5.488;2022-12-07T06:26:30;7.90;97.50
25440;DHT22;13365;52.208;5.488;2022-12-07T06:28:56;8.00;97.30
25440;DHT22;13365;52.208;5.488;2022-12-07T06:31:22;7.90;97.10
25440;DHT22;13365;52.208;5.488;2022-12-07T06:33:47;7.90;97.20
25440;DHT22;13365;52.208;5.488;2022-12-07T06:36:13;7.90;97.40
25440;DHT22;13365;52.208;5.488;2022-12-07T06:38:39;8.00;97.50
25440;DHT22;13365;52.208;5.488;2022-12-07T06:41:04;7.80;98.00
25440;DHT22;13365;52.208;5.488;2022-12-07T06:43:30;7.60;98.10
25440;DHT22;13365;52.208;5.488;2022-12-07T06:45:56;7.90;98.30
25440;DHT22;13365;52.208;5.488;2022-12-07T06:48:21;8.10;97.70
25440;DHT22;13365;52.208;5.488;2022-12-07T06:50:47;8.00;96.90
25440;DHT22;13365;52.208;5.488;2022-12-07T06:53:13;8.30;97.10
25440;DHT22;13365;52.208;5.488;2022-12-07T06:55:39;8.50;96.30
25440;DHT22;13365;52.208;5.488;2022-12-07T06:58:04;8.30;95.80
25440;DHT22;13365;52.208;5.488;2022-12-07T07:00:30;8.30;96.00
25440;DHT22;13365;52.208;5.488;2022-12-07T07:02:56;8.30;95.80
25440;DHT22;13365;52.208;5.488;2022-12-07T07:05:22;8.30;95.70
25440;DHT22;13365;52.208;5.488;2022-12-07T07:07:49;8.20;95.90
25440;DHT22;13365;52.208;5.488;2022-12-07T07:10:14;8.20;96.20
25440;DHT22;13365;52.208;5.488;2022-12-07T07:12:40;8.10;95.70
25440;DHT22;13365;52.208;5.488;2022-12-07T07:15:06;8.00;95.90
25440;DHT22;13365;52.208;5.488;2022-12-07T07:17:31;8.00;96.30
25440;DHT22;13365;52.208;5.488;2022-12-07T07:19:57;8.10;96.20
25440;DHT22;13365;52.208;5.488;2022-12-07T07:22:23;8.40;95.90
25440;DHT22;13365;52.208;5.488;2022-12-07T07:24:48;8.30;95.10
25440;DHT22;13365;52.208;5.488;2022-12-07T07:27:14;8.10;95.50
25440;DHT22;13365;52.208;5.488;2022-12-07T07:29:39;8.30;96.00
25440;DHT22;13365;52.208;5.488;2022-12-07T07:32:05;8.50;95.60
25440;DHT22;13365;52.208;5.488;2022-12-07T07:34:30;8.50;95.50
25440;DHT22;13365;52.208;5.488;2022-12-07T07:36:56;8.30;95.50
25440;DHT22;13365;52.208;5.488;2022-12-07T07:39:21;8.30;95.70
25440;DHT22;13365;52.208;5.488;2022-12-07T07:41:47;8.40;95.80
25440;DHT22;13365;52.208;5.488;2022-12-07T07:44:12;8.70;96.10
25440;DHT22;13365;52.208;5.488;2022-12-07T07:46:39;9.00;95.50
25440;DHT22;13365;52.208;5.488;2022-12-07T07:49:04;9.10;95.00
25440;DHT22;13365;52.208;5.488;2022-12-07T07:51:30;9.20;94.80
25440;DHT22;13365;52.208;5.488;2022-12-07T07:53:55;9.10;94.40
25440;DHT22;13365;52.208;5.488;2022-12-07T07:56:21;8.90;94.80
25440;DHT22;13365;52.208;5.488;2022-12-07T07:58:46;8.80;95.00
25440;DHT22;13365;52.208;5.488;2022-12-07T08:01:12;9.10;94.80
25440;DHT22;13365;52.208;5.488;2022-12-07T08:03:38;9.10;94.50
25440;DHT22;13365;52.208;5.488;2022-12-07T08:06:05;9.30;94.20
25440;DHT22;13365;52.208;5.488;2022-12-07T08:08:31;9.40;93.90
25440;DHT22;13365;52.208;5.488;2022-12-07T08:10:57;9.10;93.90
25440;DHT22;13365;52.208;5.488;2022-12-07T08:13:25;8.50;94.80
25440;DHT22;13365;52.208;5.488;2022-12-07T08:15:51;8.20;96.20
25440;DHT22;13365;52.208;5.488;2022-12-07T08:18:17;8.40;96.80
25440;DHT22;13365;52.208;5.488;2022-12-07T08:20:42;8.40;96.90
25440;DHT22;13365;52.208;5.488;2022-12-07T08:23:09;8.50;96.90
25440;DHT22;13365;52.208;5.488;2022-12-07T08:25:35;8.50;96.90
25440;DHT22;13365;52.208;5.488;2022-12-07T08:28:01;8.50;96.80
25440;DHT22;13365;52.208;5.488;2022-12-07T08:30:27;8.60;96.70
25440;DHT22;13365;52.208;5.488;2022-12-07T08:32:53;8.60;96.80
25440;DHT22;13365;52.208;5.488;2022-12-07T08:35:19;8.50;96.80
25440;DHT22;13365;52.208;5.488;2022-12-07T08:37:45;8.60;97.30
25440;DHT22;13365;52.208;5.488;2022-12-07T08:40:12;8.70;97.30
25440;DHT22;13365;52.208;5.488;2022-12-07T08:42:41;9.00;97.00
25440;DHT22;13365;52.208;5.488;2022-12-07T08:45:09;9.30;96.60
25440;DHT22;13365;52.208;5.488;2022-12-07T08:47:38;9.30;96.10
25440;DHT22;13365;52.208;5.488;2022-12-07T08:50:07;9.40;95.90
25440;DHT22;13365;52.208;5.488;2022-12-07T08:52:34;9.30;95.50
25440;DHT22;13365;52.208;5.488;2022-12-07T08:55:00;9.30;95.70
25440;DHT22;13365;52.208;5.488;2022-12-07T08:57:27;9.70;95.50
25440;DHT22;13365;52.208;5.488;2022-12-07T08:59:53;9.70;95.20
25440;DHT22;13365;52.208;5.488;2022-12-07T09:02:18;9.70;95.00
25440;DHT22;13365;52.208;5.488;2022-12-07T09:04:44;9.60;94.80
25440;DHT22;13365;52.208;5.488;2022-12-07T09:07:09;9.70;95.20
25440;DHT22;13365;52.208;5.488;2022-12-07T09:09:35;9.30;95.20
25440;DHT22;13365;52.208;5.488;2022-12-07T09:12:01;9.30;95.90
25440;DHT22;13365;52.208;5.488;2022-12-07T09:14:26;9.20;95.70
25440;DHT22;13365;52.208;5.488;2022-12-07T09:16:52;8.90;96.30
25440;DHT22;13365;52.208;5.488;2022-12-07T09:19:17;8.80;96.60
25440;DHT22;13365;52.208;5.488;2022-12-07T09:21:43;8.70;96.90
25440;DHT22;13365;52.208;5.488;2022-12-07T09:24:08;8.50;97.40
25440;DHT22;13365;52.208;5.488;2022-12-07T09:26:35;8.40;97.90
25440;DHT22;13365;52.208;5.488;2022-12-07T09:29:02;8.20;98.10
25440;DHT22;13365;52.208;5.488;2022-12-07T09:31:28;8.10;98.50
25440;DHT22;13365;52.208;5.488;2022-12-07T09:33:58;8.00;98.70
25440;DHT22;13365;52.208;5.488;2022-12-07T09:36:24;8.20;98.80
25440;DHT22;13365;52.208;5.488;2022-12-07T09:38:50;8.30;98.40
25440;DHT22;13365;52.208;5.488;2022-12-07T09:41:16;8.50;98.40
25440;DHT22;13365;52.208;5.488;2022-12-07T09:43:42;8.70;98.00
25440;DHT22;13365;52.208;5.488;2022-12-07T09:46:14;8.70;97.70
25440;DHT22;13365;52.208;5.488;2022-12-07T09:48:42;8.90;97.50
25440;DHT22;13365;52.208;5.488;2022-12-07T09:51:26;8.80;97.40
25440;DHT22;13365;52.208;5.488;2022-12-07T09:53:53;8.90;97.90
25440;DHT22;13365;52.208;5.488;2022-12-07T09:56:20;9.00;97.80
25440;DHT22;13365;52.208;5.488;2022-12-07T09:58:47;9.20;97.60
25440;DHT22;13365;52.208;5.488;2022-12-07T10:01:19;9.60;97.00
25440;DHT22;13365;52.208;5.488;2022-12-07T10:03:59;9.50;96.50
25440;DHT22;13365;52.208;5.488;2022-12-07T10:06:26;9.20;96.70
25440;DHT22;13365;52.208;5.488;2022-12-07T10:08:51;9.10;96.90
25440;DHT22;13365;52.208;5.488;2022-12-07T10:11:17;9.10;97.20
25440;DHT22;13365;52.208;5.488;2022-12-07T10:13:48;9.30;97.30
25440;DHT22;13365;52.208;5.488;2022-12-07T10:19:22;9.40;97.20
25440;DHT22;13365;52.208;5.488;2022-12-07T10:22:14;9.30;97.20
25440;DHT22;13365;52.208;5.488;2022-12-07T10:24:41;9.20;97.60
25440;DHT22;13365;52.208;5.488;2022-12-07T10:27:30;9.00;97.60
25440;DHT22;13365;52.208;5.488;2022-12-07T10:29:57;8.90;97.80
25440;DHT22;13365;52.208;5.488;2022-12-07T10:32:33;9.30;98.10
25440;DHT22;13365;52.208;5.488;2022-12-07T10:35:27;9.50;97.60
25440;DHT22;13365;52.208;5.488;2022-12-07T10:37:54;9.60;97.50
25440;DHT22;13365;52.208;5.488;2022-12-07T10:40:31;9.60;97.30
25440;DHT22;13365;52.208;5.488;2022-12-07T10:46:03;9.50;97.60
25440;DHT22;13365;52.208;5.488;2022-12-07T10:48:54;10.00;97.00
25440;DHT22;13365;52.208;5.488;2022-12-07T10:51:41;9.90;96.60
25440;DHT22;13365;52.208;5.488;2022-12-07T10:54:48;9.70;97.10
25440;DHT22;13365;52.208;5.488;2022-12-07T11:00:21;9.80;97.00
25440;DHT22;13365;52.208;5.488;2022-12-07T11:05:52;10.30;96.20
25440;DHT22;13365;52.208;5.488;2022-12-07T11:14:25;9.80;95.90
25440;DHT22;13365;52.208;5.488;2022-12-07T11:17:03;9.70;95.90
25440;DHT22;13365;52.208;5.488;2022-12-07T11:20:05;9.70;96.20
25440;DHT22;13365;52.208;5.488;2022-12-07T11:22:44;9.50;96.40
25440;DHT22;13365;52.208;5.488;2022-12-07T11:25:32;9.60;96.50
25440;DHT22;13365;52.208;5.488;2022-12-07T11:31:06;9.50;96.80
25440;DHT22;13365;52.208;5.488;2022-12-07T11:33:57;9.50;97.00
25440;DHT22;13365;52.208;5.488;2022-12-07T11:38:57;9.80;97.30
25440;DHT22;13365;52.208;5.488;2022-12-07T11:41:28;9.90;97.70
25440;DHT22;13365;52.208;5.488;2022-12-07T11:46:28;10.00;97.20
25440;DHT22;13365;52.208;5.488;2022-12-07T11:49:21;10.20;96.70
25440;DHT22;13365;52.208;5.488;2022-12-07T11:51:53;10.20;97.10
25440;DHT22;13365;52.208;5.488;2022-12-07T11:54:34;10.50;96.50
25440;DHT22;13365;52.208;5.488;2022-12-07T11:57:11;10.70;94.90
25440;DHT22;13365;52.208;5.488;2022-12-07T11:59:47;10.30;94.90
25440;DHT22;13365;52.208;5.488;2022-12-07T12:02:19;10.10;95.50
25440;DHT22;13365;52.208;5.488;2022-12-07T12:04:58;10.20;95.50
25440;DHT22;13365;52.208;5.488;2022-12-07T12:07:27;10.10;95.40
25440;DHT22;13365;52.208;5.488;2022-12-07T12:10:01;10.30;96.10
25440;DHT22;13365;52.208;5.488;2022-12-07T12:15:29;10.80;94.80
25440;DHT22;13365;52.208;5.488;2022-12-07T12:21:08;10.80;94.20
25440;DHT22;13365;52.208;5.488;2022-12-07T12:24:05;11.00;93.80
25440;DHT22;13365;52.208;5.488;2022-12-07T12:26:36;11.10;93.90
25440;DHT22;13365;52.208;5.488;2022-12-07T12:29:19;11.10;94.30
25440;DHT22;13365;52.208;5.488;2022-12-07T12:31:47;11.30;93.70
25440;DHT22;13365;52.208;5.488;2022-12-07T12:42:46;11.00;93.90
25440;DHT22;13365;52.208;5.488;2022-12-07T12:45:25;11.30;94.40
25440;DHT22;13365;52.208;5.488;2022-12-07T12:47:59;11.50;93.40
25440;DHT22;13365;52.208;5.488;2022-12-07T12:50:36;11.70;93.70
25440;DHT22;13365;52.208;5.488;2022-12-07T13:00:43;12.00;92.70
25440;DHT22;13365;52.208;5.488;2022-12-07T13:03:26;11.50;93.50
25440;DHT22;13365;52.208;5.488;2022-12-07T13:06:28;10.70;95.60
25440;DHT22;13365;52.208;5.488;2022-12-07T13:08:59;10.40;96.20
25440;DHT22;13365;52.208;5.488;2022-12-07T13:11:32;10.20;96.50
25440;DHT22;13365;52.208;5.488;2022-12-07T13:17:02;9.40;97.10
25440;DHT22;13365;52.208;5.488;2022-12-07T13:19:53;9.40;97.50
25440;DHT22;13365;52.208;5.488;2022-12-07T13:27:51;9.20;98.50
25440;DHT22;13365;52.208;5.488;2022-12-07T13:30:21;9.00;98.50
25440;DHT22;13365;52.208;5.488;2022-12-07T13:32:58;8.90;99.10
25440;DHT22;13365;52.208;5.488;2022-12-07T13:37:53;9.20;98.80
25440;DHT22;13365;52.208;5.488;2022-12-07T13:40:21;9.40;99.00
25440;DHT22;13365;52.208;5.488;2022-12-07T13:43:00;9.70;98.50
25440;DHT22;13365;52.208;5.488;2022-12-07T13:45:28;9.80;98.20
25440;DHT22;13365;52.208;5.488;2022-12-07T13:48:23;10.00;97.30
25440;DHT22;13365;52.208;5.488;2022-12-07T13:50:57;9.70;97.50
25440;DHT22;13365;52.208;5.488;2022-12-07T13:53:23;9.90;97.90
25440;DHT22;13365;52.208;5.488;2022-12-07T13:55:49;9.70;97.70
25440;DHT22;13365;52.208;5.488;2022-12-07T13:58:15;9.30;98.00
25440;DHT22;13365;52.208;5.488;2022-12-07T14:00:41;9.50;98.30
25440;DHT22;13365;52.208;5.488;2022-12-07T14:05:41;9.70;98.10
25440;DHT22;13365;52.208;5.488;2022-12-07T14:10:39;10.20;97.90
25440;DHT22;13365;52.208;5.488;2022-12-07T14:13:33;10.20;97.70
25440;DHT22;13365;52.208;5.488;2022-12-07T14:16:27;10.40;97.30
25440;DHT22;13365;52.208;5.488;2022-12-07T14:19:01;10.40;97.20
25440;DHT22;13365;52.208;5.488;2022-12-07T14:21:30;10.60;97.00
25440;DHT22;13365;52.208;5.488;2022-12-07T14:24:12;10.80;96.50
25440;DHT22;13365;52.208;5.488;2022-12-07T14:26:40;10.80;96.30
25440;DHT22;13365;52.208;5.488;2022-12-07T14:31:46;11.00;96.10
25440;DHT22;13365;52.208;5.488;2022-12-07T14:34:12;10.80;95.70
25440;DHT22;13365;52.208;5.488;2022-12-07T14:36:38;10.80;95.90
25440;DHT22;13365;52.208;5.488;2022-12-07T14:39:03;11.00;96.00
25440;DHT22;13365;52.208;5.488;2022-12-07T14:41:29;11.10;95.50
25440;DHT22;13365;52.208;5.488;2022-12-07T14:44:13;11.20;95.40
25440;DHT22;13365;52.208;5.488;2022-12-07T14:46:39;11.30;95.10
25440;DHT22;13365;52.208;5.488;2022-12-07T14:49:04;11.40;95.00
25440;DHT22;13365;52.208;5.488;2022-12-07T14:51:30;11.60;94.70
25440;DHT22;13365;52.208;5.488;2022-12-07T14:53:56;11.80;94.40
25440;DHT22;13365;52.208;5.488;2022-12-07T14:56:22;11.80;94.20
25440;DHT22;13365;52.208;5.488;2022-12-07T14:58:47;11.60;94.10
25440;DHT22;13365;52.208;5.488;2022-12-07T15:01:13;11.70;94.40
25440;DHT22;13365;52.208;5.488;2022-12-07T15:03:39;11.80;94.10
25440;DHT22;13365;52.208;5.488;2022-12-07T15:06:06;11.50;94.00
25440;DHT22;13365;52.208;5.488;2022-12-07T15:08:32;11.50;94.20
25440;DHT22;13365;52.208;5.488;2022-12-07T15:10:57;11.00;94.10
25440;DHT22;13365;52.208;5.488;2022-12-07T15:13:23;10.70;95.20
25440;DHT22;13365;52.208;5.488;2022-12-07T15:16:18;10.20;95.20
25440;DHT22;13365;52.208;5.488;2022-12-07T15:18:44;9.60;96.50
25440;DHT22;13365;52.208;5.488;2022-12-07T15:21:14;9.00;97.40
25440;DHT22;13365;52.208;5.488;2022-12-07T15:23:40;9.00;98.40
25440;DHT22;13365;52.208;5.488;2022-12-07T15:26:06;9.00;98.50
25440;DHT22;13365;52.208;5.488;2022-12-07T15:28:33;9.10;98.80
25440;DHT22;13365;52.208;5.488;2022-12-07T15:30:59;9.10;98.40
25440;DHT22;13365;52.208;5.488;2022-12-07T15:33:24;9.10;98.50
25440;DHT22;13365;52.208;5.488;2022-12-07T15:35:50;9.30;98.20
25440;DHT22;13365;52.208;5.488;2022-12-07T15:38:15;9.40;97.90
25440;DHT22;13365;52.208;5.488;2022-12-07T15:40:41;9.40;97.30
25440;DHT22;13365;52.208;5.488;2022-12-07T15:43:08;9.10;97.40
25440;DHT22;13365;52.208;5.488;2022-12-07T15:45:54;9.20;97.80
25440;DHT22;13365;52.208;5.488;2022-12-07T15:48:20;9.10;97.40
25440;DHT22;13365;52.208;5.488;2022-12-07T15:50:45;8.60;97.80
25440;DHT22;13365;52.208;5.488;2022-12-07T15:53:11;9.00;98.20
25440;DHT22;13365;52.208;5.488;2022-12-07T15:55:39;9.20;97.70
25440;DHT22;13365;52.208;5.488;2022-12-07T15:58:05;9.40;97.00
25440;DHT22;13365;52.208;5.488;2022-12-07T16:00:31;9.20;96.80
25440;DHT22;13365;52.208;5.488;2022-12-07T16:02:56;9.10;96.90
25440;DHT22;13365;52.208;5.488;2022-12-07T16:05:22;9.50;97.20
25440;DHT22;13365;52.208;5.488;2022-12-07T16:07:47;9.70;96.30
25440;DHT22;13365;52.208;5.488;2022-12-07T16:10:13;10.00;96.30
25440;DHT22;13365;52.208;5.488;2022-12-07T16:12:38;10.20;95.50
25440;DHT22;13365;52.208;5.488;2022-12-07T16:15:04;10.40;95.20
25440;DHT22;13365;52.208;5.488;2022-12-07T16:17:30;10.40;95.10
25440;DHT22;13365;52.208;5.488;2022-12-07T16:19:56;10.40;94.90
25440;DHT22;13365;52.208;5.488;2022-12-07T16:22:22;10.70;94.70
25440;DHT22;13365;52.208;5.488;2022-12-07T16:24:48;10.90;94.20
25440;DHT22;13365;52.208;5.488;2022-12-07T16:27:14;10.90;93.80
25440;DHT22;13365;52.208;5.488;2022-12-07T16:29:40;11.00;93.60
25440;DHT22;13365;52.208;5.488;2022-12-07T16:32:05;11.00;93.60
25440;DHT22;13365;52.208;5.488;2022-12-07T16:34:31;11.10;93.30
25440;DHT22;13365;52.208;5.488;2022-12-07T16:36:56;11.00;93.30
25440;DHT22;13365;52.208;5.488;2022-12-07T16:39:22;10.90;93.50
25440;DHT22;13365;52.208;5.488;2022-12-07T16:41:47;10.90;93.30
25440;DHT22;13365;52.208;5.488;2022-12-07T16:44:13;10.80;93.20
25440;DHT22;13365;52.208;5.488;2022-12-07T16:46:39;10.90;93.10
25440;DHT22;13365;52.208;5.488;2022-12-07T16:49:05;10.90;93.10
25440;DHT22;13365;52.208;5.488;2022-12-07T16:51:31;10.90;93.00
25440;DHT22;13365;52.208;5.488;2022-12-07T16:53:57;10.90;93.10
25440;DHT22;13365;52.208;5.488;2022-12-07T16:56:22;10.70;92.90
25440;DHT22;13365;52.208;5.488;2022-12-07T16:58:48;10.60;93.10
25440;DHT22;13365;52.208;5.488;2022-12-07T17:01:19;10.50;93.20
25440;DHT22;13365;52.208;5.488;2022-12-07T17:03:46;10.30;93.40
25440;DHT22;13365;52.208;5.488;2022-12-07T17:06:17;10.20;93.80
25440;DHT22;13365;52.208;5.488;2022-12-07T17:08:43;10.10;94.00
25440;DHT22;13365;52.208;5.488;2022-12-07T17:11:17;10.00;94.30
25440;DHT22;13365;52.208;5.488;2022-12-07T17:13:43;10.00;94.20
25440;DHT22;13365;52.208;5.488;2022-12-07T17:16:27;10.10;94.80
25440;DHT22;13365;52.208;5.488;2022-12-07T17:18:53;10.10;94.60
25440;DHT22;13365;52.208;5.488;2022-12-07T17:21:18;9.90;94.50
25440;DHT22;13365;52.208;5.488;2022-12-07T17:23:44;9.90;94.80
25440;DHT22;13365;52.208;5.488;2022-12-07T17:26:13;9.90;94.90
25440;DHT22;13365;52.208;5.488;2022-12-07T17:28:39;10.00;94.80
25440;DHT22;13365;52.208;5.488;2022-12-07T17:31:07;10.00;94.70
25440;DHT22;13365;52.208;5.488;2022-12-07T17:33:33;9.90;94.50
25440;DHT22;13365;52.208;5.488;2022-12-07T17:35:59;9.80;94.80